createdAt,value
2023-07-03T00:01:53.538Z,100.00
2023-07-03T00:04:24.176Z,100.00
2023-07-03T00:06:54.557Z,100.00
2023-07-03T00:09:24.268Z,100.00
2023-07-03T00:11:54.391Z,100.00
2023-07-03T00:14:24.503Z,100.00
2023-07-03T00:16:56.385Z,100.00
2023-07-03T00:19:27.875Z,100.00
2023-07-03T00:22:01.158Z,100.00
2023-07-03T00:24:32.960Z,100.00
2023-07-03T00:27:03.081Z,100.00
2023-07-03T00:29:34.636Z,100.00
2023-07-03T00:32:03.382Z,100.00
2023-07-03T00:34:34.057Z,100.00
2023-07-03T00:37:07.837Z,100.00
2023-07-03T00:39:37.976Z,100.00
2023-07-03T00:42:09.784Z,100.00
2023-07-03T00:44:39.846Z,100.00
2023-07-03T00:47:11.859Z,100.00
2023-07-03T00:49:40.615Z,100.00
2023-07-03T00:52:12.568Z,100.00
2023-07-03T00:54:43.191Z,100.00
2023-07-03T00:57:15.350Z,100.00
2023-07-03T00:59:46.495Z,100.00
2023-07-03T01:02:21.294Z,100.00
2023-07-03T01:04:57.067Z,100.00
2023-07-03T01:07:31.189Z,100.00
2023-07-03T01:10:04.809Z,100.00
2023-07-03T01:12:38.544Z,100.00
2023-07-03T01:15:14.799Z,100.00
2023-07-03T01:17:48.078Z,100.00
2023-07-03T01:20:20.456Z,100.00
2023-07-03T01:23:00.374Z,100.00
2023-07-03T01:25:32.483Z,100.00
2023-07-03T01:28:04.714Z,100.00
2023-07-03T01:30:36.899Z,100.00
2023-07-03T01:33:08.459Z,100.00
2023-07-03T01:35:40.157Z,100.00
2023-07-03T01:38:11.241Z,100.00
2023-07-03T01:40:41.416Z,100.00
2023-07-03T01:43:13.320Z,100.00
2023-07-03T01:45:42.164Z,100.00
2023-07-03T01:48:11.955Z,100.00
2023-07-03T01:50:43.753Z,100.00
2023-07-03T01:53:19.201Z,100.00
2023-07-03T01:55:57.286Z,100.00
2023-07-03T01:58:33.367Z,100.00
2023-07-03T02:01:06.215Z,100.00
2023-07-03T02:03:41.261Z,100.00
2023-07-03T02:06:16.799Z,100.00
2023-07-03T02:08:48.816Z,100.00
2023-07-03T02:11:21.716Z,100.00
2023-07-03T02:13:54.358Z,100.00
2023-07-03T02:16:30.188Z,100.00
2023-07-03T02:19:01.128Z,100.00
2023-07-03T02:21:31.045Z,100.00
2023-07-03T02:24:01.789Z,100.00
2023-07-03T02:26:31.695Z,100.00
2023-07-03T02:29:02.029Z,100.00
2023-07-03T02:31:32.753Z,100.00
2023-07-03T02:34:02.458Z,100.00
2023-07-03T02:36:37.503Z,100.00
2023-07-03T02:39:09.869Z,100.00
2023-07-03T02:41:39.769Z,100.00
2023-07-03T02:44:10.922Z,100.00
2023-07-03T02:46:42.828Z,100.00
2023-07-03T02:49:12.934Z,100.00
2023-07-03T02:51:43.738Z,100.00
2023-07-03T02:54:14.057Z,100.00
2023-07-03T02:56:44.584Z,100.00
2023-07-03T02:59:15.531Z,100.00
2023-07-03T03:01:45.847Z,100.00
2023-07-03T03:04:16.860Z,100.00
2023-07-03T03:06:47.306Z,100.00
2023-07-03T03:09:17.459Z,100.00
2023-07-03T03:11:47.543Z,100.00
2023-07-03T03:14:17.351Z,100.00
2023-07-03T03:16:47.434Z,100.00
2023-07-03T03:19:17.828Z,100.00
2023-07-03T03:21:50.480Z,100.00
2023-07-03T03:24:20.941Z,100.00
2023-07-03T03:26:51.537Z,100.00
2023-07-03T03:29:21.574Z,100.00
2023-07-03T03:31:51.774Z,100.00
2023-07-03T03:34:21.694Z,100.00
2023-07-03T03:36:51.810Z,100.00
2023-07-03T03:39:21.922Z,100.00
2023-07-03T03:41:52.046Z,100.00
2023-07-03T03:44:22.164Z,100.00
2023-07-03T03:46:54.343Z,100.00
2023-07-03T03:49:25.677Z,100.00
2023-07-03T03:51:56.612Z,100.00
2023-07-03T03:54:28.390Z,100.00
2023-07-03T03:56:58.488Z,100.00
2023-07-03T03:59:29.018Z,100.00
2023-07-03T04:01:59.185Z,100.00
2023-07-03T04:04:29.800Z,100.00
2023-07-03T04:07:00.393Z,100.00
2023-07-03T04:09:30.517Z,100.00
2023-07-03T04:12:01.123Z,100.00
2023-07-03T04:14:31.366Z,100.00
2023-07-03T04:17:02.344Z,100.00
2023-07-03T04:19:32.624Z,100.00
2023-07-03T04:22:02.753Z,100.00
2023-07-03T04:24:32.857Z,100.00
2023-07-03T04:27:04.204Z,100.00
2023-07-03T04:29:34.324Z,100.00
2023-07-03T04:32:04.729Z,100.00
2023-07-03T04:34:34.990Z,100.00
2023-07-03T04:37:09.152Z,100.00
2023-07-03T04:39:39.104Z,100.00
2023-07-03T04:42:14.048Z,100.00
2023-07-03T04:44:44.125Z,100.00
2023-07-03T04:47:16.845Z,100.00
2023-07-03T04:49:49.206Z,100.00
2023-07-03T04:52:20.323Z,100.00
2023-07-03T04:54:50.267Z,100.00
2023-07-03T04:57:20.166Z,100.00
2023-07-03T04:59:50.628Z,100.00
2023-07-03T05:02:21.663Z,100.00
2023-07-03T05:04:52.003Z,100.00
2023-07-03T05:07:23.724Z,100.00
2023-07-03T05:09:54.454Z,100.00
2023-07-03T05:12:24.240Z,100.00
2023-07-03T05:14:55.712Z,100.00
2023-07-03T05:17:26.047Z,100.00
2023-07-03T05:19:56.978Z,100.00
2023-07-03T05:22:27.509Z,100.00
2023-07-03T05:24:57.629Z,100.00
2023-07-03T05:27:27.741Z,100.00
2023-07-03T05:29:58.654Z,100.00
2023-07-03T05:32:28.695Z,100.00
2023-07-03T05:34:58.910Z,100.00
2023-07-03T05:37:28.873Z,100.00
2023-07-03T05:39:58.951Z,100.00
2023-07-03T05:42:29.278Z,100.00
2023-07-03T05:44:59.804Z,100.00
2023-07-03T05:47:31.163Z,100.00
2023-07-03T05:50:01.267Z,100.00
2023-07-03T05:52:32.196Z,100.00
2023-07-03T05:55:02.306Z,100.00
2023-07-03T05:57:32.617Z,100.00
2023-07-03T06:00:06.372Z,100.00
2023-07-03T06:02:44.091Z,100.00
2023-07-03T06:05:16.310Z,100.00
2023-07-03T06:07:46.640Z,100.00
2023-07-03T06:10:16.571Z,100.00
2023-07-03T06:12:46.462Z,100.00
2023-07-03T06:15:17.004Z,100.00
2023-07-03T06:17:47.328Z,100.00
2023-07-03T06:20:17.504Z,100.00
2023-07-03T06:22:47.264Z,100.00
2023-07-03T06:25:17.463Z,100.00
2023-07-03T06:27:47.785Z,100.00
2023-07-03T06:30:17.601Z,100.00
2023-07-03T06:32:47.437Z,100.00
2023-07-03T06:35:18.959Z,100.00
2023-07-03T06:37:49.278Z,100.00
2023-07-03T06:40:20.011Z,100.00
2023-07-03T06:42:49.666Z,100.00
2023-07-03T06:45:22.294Z,100.00
2023-07-03T06:47:52.758Z,100.00
2023-07-03T06:50:22.774Z,100.00
2023-07-03T06:52:52.858Z,100.00
2023-07-03T06:55:22.984Z,100.00
2023-07-03T06:57:52.894Z,100.00
2023-07-03T07:00:24.089Z,100.00
2023-07-03T07:02:54.436Z,100.00
2023-07-03T07:05:24.558Z,100.00
2023-07-03T07:07:54.730Z,100.00
2023-07-03T07:10:25.296Z,100.00
2023-07-03T07:12:55.404Z,100.00
2023-07-03T07:15:25.571Z,100.00
2023-07-03T07:17:55.761Z,100.00
2023-07-03T07:20:25.528Z,100.00
2023-07-03T07:22:55.239Z,100.00
2023-07-03T07:25:25.153Z,100.00
2023-07-03T07:27:55.136Z,100.00
2023-07-03T07:30:25.103Z,100.00
2023-07-03T07:32:55.802Z,100.00
2023-07-03T07:35:25.903Z,100.00
2023-07-03T07:37:55.739Z,100.00
2023-07-03T07:40:26.845Z,100.00
2023-07-03T07:42:56.668Z,100.00
2023-07-03T07:45:26.354Z,100.00
2023-07-03T07:47:56.763Z,100.00
2023-07-03T07:50:28.806Z,100.00
2023-07-03T07:53:00.602Z,100.00
2023-07-03T07:55:30.655Z,100.00
2023-07-03T07:58:00.965Z,100.00
2023-07-03T08:00:30.977Z,100.00
2023-07-03T08:03:01.247Z,100.00
2023-07-03T08:05:32.130Z,100.00
2023-07-03T08:08:02.294Z,100.00
2023-07-03T08:10:32.188Z,100.00
2023-07-03T08:13:02.595Z,100.00
2023-07-03T08:15:32.500Z,100.00
2023-07-03T08:18:03.069Z,100.00
2023-07-03T08:20:32.874Z,100.00
2023-07-03T08:23:02.911Z,100.00
2023-07-03T08:25:32.993Z,100.00
2023-07-03T08:28:02.915Z,100.00
2023-07-03T08:30:33.221Z,100.00
2023-07-03T08:33:03.727Z,100.00
2023-07-03T08:38:05.441Z,100.00
2023-07-03T08:40:35.479Z,100.00
2023-07-03T08:43:07.448Z,100.00
2023-07-03T08:45:39.313Z,100.00
2023-07-03T08:48:15.395Z,100.00
2023-07-03T08:50:47.689Z,100.00
2023-07-03T08:53:20.873Z,100.00
2023-07-03T08:55:55.661Z,100.00
2023-07-03T08:58:26.235Z,100.00
2023-07-03T09:01:03.685Z,100.00
2023-07-03T09:03:42.756Z,100.00
2023-07-03T09:06:19.523Z,100.00
2023-07-03T09:09:01.519Z,100.00
2023-07-03T09:11:36.713Z,100.00
2023-07-03T09:14:12.619Z,100.00
2023-07-03T09:16:45.826Z,100.00
2023-07-03T09:19:21.666Z,100.00
2023-07-03T09:21:55.687Z,100.00
2023-07-03T09:24:30.981Z,100.00
2023-07-03T09:27:10.381Z,99.91
2023-07-03T09:29:42.631Z,98.65
2023-07-03T09:32:23.137Z,98.87
2023-07-03T09:35:06.427Z,97.40
2023-07-03T09:37:38.482Z,96.84
2023-07-03T09:40:14.496Z,96.80
2023-07-03T09:42:45.100Z,95.06
2023-07-03T09:45:18.159Z,94.45
2023-07-03T09:47:54.070Z,93.71
2023-07-03T09:50:29.976Z,91.48
2023-07-03T09:53:08.539Z,91.36
2023-07-03T09:55:39.931Z,91.31
2023-07-03T09:58:15.929Z,91.01
2023-07-03T10:00:49.584Z,89.63
2023-07-03T10:08:45.803Z,86.62
2023-07-03T10:11:23.397Z,86.53
2023-07-03T10:13:54.581Z,86.55
2023-07-03T10:16:27.159Z,85.35
2023-07-03T10:18:59.286Z,85.42
2023-07-03T10:21:31.297Z,84.90
2023-07-03T10:24:02.433Z,82.55
2023-07-03T10:26:40.959Z,81.33
2023-07-03T10:29:20.046Z,79.33
2023-07-03T10:31:53.458Z,78.43
2023-07-03T10:34:28.512Z,77.81
2023-07-03T10:37:02.255Z,78.14
2023-07-03T10:39:42.055Z,76.97
2023-07-03T10:42:20.138Z,76.75
2023-07-03T10:44:57.622Z,75.83
2023-07-03T10:47:39.509Z,76.27
2023-07-03T10:50:12.047Z,76.46
2023-07-03T10:52:48.300Z,76.20
2023-07-03T10:55:25.467Z,75.46
2023-07-03T10:58:02.898Z,76.81
2023-07-03T11:00:40.391Z,77.34
2023-07-03T11:03:21.275Z,77.68
2023-07-03T11:05:57.757Z,77.69
2023-07-03T11:08:37.134Z,77.44
2023-07-03T11:11:15.445Z,79.94
2023-07-03T11:13:52.486Z,79.81
2023-07-03T11:16:29.966Z,79.39
2023-07-03T11:24:32.141Z,78.20
2023-07-03T11:29:44.836Z,75.55
2023-07-03T11:32:17.148Z,75.84
2023-07-03T11:40:27.472Z,70.89
2023-07-03T11:46:21.869Z,70.79
2023-07-03T11:48:57.918Z,68.80
2023-07-03T11:51:36.660Z,68.62
2023-07-03T11:54:19.658Z,67.89
2023-07-03T11:57:03.039Z,67.17
2023-07-03T11:59:38.760Z,66.65
2023-07-03T12:02:44.405Z,66.60
2023-07-03T12:05:54.184Z,65.62
2023-07-03T12:08:42.858Z,65.88
2023-07-03T12:11:15.050Z,66.07
2023-07-03T12:13:54.287Z,65.55
2023-07-03T12:16:28.408Z,65.92
2023-07-03T12:19:05.051Z,65.75
2023-07-03T12:21:46.854Z,64.69
2023-07-03T12:24:22.769Z,64.01
2023-07-03T12:26:55.492Z,65.24
2023-07-03T12:29:25.182Z,64.81
2023-07-03T12:32:05.862Z,65.21
2023-07-03T12:34:37.921Z,64.82
2023-07-03T12:37:15.390Z,64.26
2023-07-03T12:39:46.322Z,63.18
2023-07-03T12:42:19.876Z,64.60
2023-07-03T12:44:50.260Z,65.87
2023-07-03T12:47:22.253Z,68.42
2023-07-03T12:49:56.491Z,69.09
2023-07-03T12:52:27.478Z,69.53
2023-07-03T12:55:14.065Z,68.37
2023-07-03T12:57:46.050Z,67.81
2023-07-03T13:00:25.993Z,67.69
2023-07-03T13:03:00.639Z,66.71
2023-07-03T13:05:34.192Z,67.24
2023-07-03T13:08:07.741Z,65.28
2023-07-03T13:10:38.131Z,64.26
2023-07-03T13:13:10.889Z,64.05
2023-07-03T13:15:43.284Z,63.05
2023-07-03T13:18:20.579Z,62.64
2023-07-03T13:20:59.539Z,60.82
2023-07-03T13:23:32.454Z,59.13
2023-07-03T13:26:04.398Z,60.24
2023-07-03T13:28:36.700Z,61.38
2023-07-03T13:31:12.543Z,62.28
2023-07-03T13:33:44.662Z,65.61
2023-07-03T13:36:27.093Z,67.82
2023-07-03T13:39:07.913Z,69.55
2023-07-03T13:41:37.543Z,70.89
2023-07-03T13:44:09.666Z,71.73
2023-07-03T13:46:40.585Z,73.67
2023-07-03T13:49:11.097Z,75.19
2023-07-03T13:51:42.697Z,76.94
2023-07-03T13:54:13.287Z,77.99
2023-07-03T13:56:44.172Z,77.63
2023-07-03T13:59:14.436Z,79.09
2023-07-03T14:01:45.279Z,80.07
2023-07-03T14:04:15.241Z,81.45
2023-07-03T14:06:46.114Z,82.72
2023-07-03T14:09:16.195Z,83.18
2023-07-03T14:11:46.521Z,83.60
2023-07-03T14:14:16.222Z,84.47
2023-07-03T14:16:46.552Z,85.20
2023-07-03T14:19:16.875Z,85.49
2023-07-03T14:21:46.792Z,85.27
2023-07-03T14:24:17.112Z,87.01
2023-07-03T14:26:46.818Z,87.91
2023-07-03T14:29:17.348Z,85.87
2023-07-03T14:31:49.358Z,85.91
2023-07-03T14:34:20.184Z,86.43
2023-07-03T14:36:50.172Z,86.78
2023-07-03T14:39:20.282Z,86.95
2023-07-03T14:41:50.602Z,87.48
2023-07-03T14:44:20.461Z,87.59
2023-07-03T14:46:50.637Z,87.40
2023-07-03T14:49:20.557Z,88.26
2023-07-03T14:51:50.874Z,87.92
2023-07-03T14:54:23.194Z,87.72
2023-07-03T14:56:53.364Z,87.65
2023-07-03T14:59:23.497Z,86.78
2023-07-03T15:01:53.265Z,86.14
2023-07-03T15:04:23.228Z,85.86
2023-07-03T15:06:54.054Z,85.25
2023-07-03T15:09:25.192Z,86.18
2023-07-03T15:11:55.511Z,87.35
2023-07-03T15:14:25.777Z,88.47
2023-07-03T15:16:55.689Z,88.49
2023-07-03T15:19:26.077Z,89.65
2023-07-03T15:21:56.396Z,90.43
2023-07-03T15:24:27.068Z,90.62
2023-07-03T15:26:57.387Z,90.18
2023-07-03T15:29:28.053Z,89.81
2023-07-03T15:31:57.517Z,89.79
2023-07-03T15:34:28.208Z,90.93
2023-07-03T15:36:58.131Z,91.16
2023-07-03T15:39:28.262Z,90.32
2023-07-03T15:41:58.566Z,90.31
2023-07-03T15:44:28.595Z,89.39
2023-07-03T15:46:58.666Z,88.88
2023-07-03T15:49:31.657Z,88.42
2023-07-03T15:52:02.736Z,88.48
2023-07-03T15:54:35.788Z,87.67
2023-07-03T15:57:08.212Z,87.49
2023-07-03T15:59:38.208Z,87.51
2023-07-03T16:02:08.821Z,86.91
2023-07-03T16:04:38.924Z,85.67
2023-07-03T16:07:09.185Z,85.25
2023-07-03T16:09:39.295Z,85.00
2023-07-03T16:12:10.388Z,84.54
2023-07-03T16:14:39.127Z,82.94
2023-07-03T16:17:09.519Z,83.51
2023-07-03T16:19:40.185Z,84.34
2023-07-03T16:22:10.298Z,84.71
2023-07-03T16:24:39.810Z,85.07
2023-07-03T16:27:09.928Z,85.43
2023-07-03T16:29:43.083Z,85.57
2023-07-03T16:32:13.441Z,85.57
2023-07-03T16:34:43.237Z,85.42
2023-07-03T16:37:13.272Z,85.24
2023-07-03T16:39:43.187Z,85.06
2023-07-03T16:42:13.125Z,85.52
2023-07-03T16:44:43.215Z,85.90
2023-07-03T16:47:13.194Z,85.90
2023-07-03T16:49:43.662Z,85.64
2023-07-03T16:52:15.006Z,85.77
2023-07-03T16:54:45.255Z,86.40
2023-07-03T16:57:15.042Z,86.76
2023-07-03T16:59:45.772Z,86.72
2023-07-03T17:02:16.215Z,87.35
2023-07-03T17:04:46.103Z,87.98
2023-07-03T17:07:16.126Z,88.85
2023-07-03T17:09:46.457Z,89.12
2023-07-03T17:12:16.372Z,89.06
2023-07-03T17:14:46.059Z,89.45
2023-07-03T17:17:17.679Z,89.73
2023-07-03T17:19:47.957Z,89.65
2023-07-03T17:22:17.662Z,89.81
2023-07-03T17:24:47.935Z,90.11
2023-07-03T17:27:17.905Z,90.74
2023-07-03T17:29:48.224Z,90.92
2023-07-03T17:32:18.143Z,91.11
2023-07-03T17:34:48.264Z,91.33
2023-07-03T17:37:18.582Z,91.76
2023-07-03T17:39:48.906Z,91.62
2023-07-03T17:42:19.148Z,91.83
2023-07-03T17:44:49.146Z,92.23
2023-07-03T17:47:19.682Z,92.56
2023-07-03T17:49:50.004Z,92.81
2023-07-03T17:52:20.109Z,93.04
2023-07-03T17:54:50.232Z,92.94
2023-07-03T17:57:20.484Z,93.20
2023-07-03T17:59:50.588Z,93.80
2023-07-03T18:02:20.599Z,93.53
2023-07-03T18:04:50.479Z,93.24
2023-07-03T18:07:21.361Z,93.45
2023-07-03T18:09:51.357Z,93.28
2023-07-03T18:12:21.668Z,93.57
2023-07-03T18:14:51.586Z,94.32
2023-07-03T18:17:21.716Z,95.15
2023-07-03T18:19:51.616Z,95.80
2023-07-03T18:22:21.736Z,96.56
2023-07-03T18:24:52.477Z,97.53
2023-07-03T18:27:22.795Z,98.26
2023-07-03T18:29:52.678Z,98.91
2023-07-03T18:32:23.808Z,99.75
2023-07-03T18:34:53.979Z,100.00
2023-07-03T18:37:26.135Z,100.00
2023-07-03T18:39:56.684Z,100.00
2023-07-03T18:42:27.010Z,100.00
2023-07-03T18:44:57.113Z,100.00
2023-07-03T18:47:30.703Z,100.00
2023-07-03T18:50:01.244Z,100.00
2023-07-03T18:52:31.564Z,100.00
2023-07-03T18:55:01.471Z,100.00
2023-07-03T18:57:32.540Z,100.00
2023-07-03T19:00:04.180Z,100.00
2023-07-03T19:02:32.938Z,100.00
2023-07-03T19:05:06.336Z,100.00
2023-07-03T19:07:36.791Z,100.00
2023-07-03T19:10:17.827Z,100.00
2023-07-03T19:12:48.912Z,100.00
2023-07-03T19:15:19.996Z,100.00
2023-07-03T19:17:50.124Z,100.00
2023-07-03T19:20:21.520Z,100.00
2023-07-03T19:22:52.857Z,100.00
2023-07-03T19:25:22.575Z,100.00
2023-07-03T19:27:52.677Z,100.00
2023-07-03T19:30:22.827Z,100.00
2023-07-03T19:32:52.929Z,100.00
2023-07-03T19:35:23.056Z,100.00
2023-07-03T19:37:54.388Z,100.00
2023-07-03T19:40:25.117Z,100.00
2023-07-03T19:42:55.227Z,100.00
2023-07-03T19:45:25.181Z,100.00
2023-07-03T19:47:55.212Z,100.00
2023-07-03T19:50:25.425Z,100.00
2023-07-03T19:52:55.701Z,100.00
2023-07-03T19:55:27.878Z,100.00
2023-07-03T19:57:58.196Z,100.00
2023-07-03T20:00:28.209Z,100.00
2023-07-03T20:02:58.496Z,100.00
2023-07-03T20:05:28.548Z,100.00
2023-07-03T20:07:59.489Z,100.00
2023-07-03T20:10:29.337Z,100.00
2023-07-03T20:13:00.553Z,100.00
2023-07-03T20:15:32.099Z,100.00
2023-07-03T20:18:02.245Z,100.00
2023-07-03T20:20:32.378Z,100.00
2023-07-03T20:23:02.803Z,100.00
2023-07-03T20:25:32.783Z,100.00
2023-07-03T20:28:03.725Z,100.00
2023-07-03T20:30:33.474Z,100.00
2023-07-03T20:33:03.403Z,100.00
2023-07-03T20:35:33.455Z,100.00
2023-07-03T20:38:03.784Z,100.00
2023-07-03T20:40:33.552Z,100.00
2023-07-03T20:43:04.021Z,100.00
2023-07-03T20:45:34.970Z,100.00
2023-07-03T20:48:06.554Z,100.00
2023-07-03T20:50:42.364Z,100.00
2023-07-03T20:53:12.445Z,100.00
2023-07-03T20:55:44.259Z,100.00
2023-07-03T20:58:14.155Z,100.00
2023-07-03T21:00:44.269Z,100.00
2023-07-03T21:03:14.259Z,100.00
2023-07-03T21:05:44.714Z,100.00
2023-07-03T21:08:15.233Z,100.00
2023-07-03T21:10:45.472Z,100.00
2023-07-03T21:13:15.673Z,100.00
2023-07-03T21:15:46.538Z,100.00
2023-07-03T21:18:16.325Z,100.00
2023-07-03T21:20:46.826Z,100.00
2023-07-03T21:23:16.576Z,100.00
2023-07-03T21:25:48.326Z,100.00
2023-07-03T21:28:18.647Z,100.00
2023-07-03T21:30:48.585Z,100.00
2023-07-03T21:33:20.857Z,100.00
2023-07-03T21:35:52.693Z,100.00
2023-07-03T21:38:23.622Z,100.00
2023-07-03T21:40:54.966Z,100.00
2023-07-03T21:43:25.848Z,100.00
2023-07-03T21:46:03.207Z,100.00
2023-07-03T21:48:35.774Z,100.00
2023-07-03T21:51:07.325Z,100.00
2023-07-03T21:53:37.239Z,100.00
2023-07-03T21:56:10.019Z,100.00
2023-07-03T21:58:41.580Z,100.00
2023-07-03T22:01:19.068Z,100.00
2023-07-03T22:03:49.127Z,100.00
2023-07-03T22:06:19.269Z,100.00
2023-07-03T22:08:50.855Z,100.00
2023-07-03T22:11:20.977Z,100.00
2023-07-03T22:13:51.287Z,100.00
2023-07-03T22:16:22.042Z,100.00
2023-07-03T22:18:52.353Z,100.00
2023-07-03T22:21:22.583Z,100.00
2023-07-03T22:23:52.784Z,100.00
2023-07-03T22:26:22.668Z,100.00
2023-07-03T22:28:52.806Z,100.00
2023-07-03T22:31:24.974Z,100.00
2023-07-03T22:33:55.111Z,100.00
2023-07-03T22:36:25.431Z,100.00
2023-07-03T22:38:55.138Z,100.00
2023-07-03T22:41:25.455Z,100.00
2023-07-03T22:43:55.802Z,100.00
2023-07-03T22:46:26.350Z,100.00
2023-07-03T22:48:56.650Z,100.00
2023-07-03T22:51:26.962Z,100.00
2023-07-03T22:53:57.430Z,100.00
2023-07-03T22:56:28.425Z,100.00
2023-07-03T22:58:58.341Z,100.00
2023-07-03T23:01:28.662Z,100.00
2023-07-03T23:03:58.409Z,100.00
2023-07-03T23:06:28.277Z,100.00
2023-07-03T23:08:58.416Z,100.00
2023-07-03T23:11:28.656Z,100.00
2023-07-03T23:13:59.099Z,100.00
2023-07-03T23:16:29.421Z,100.00
2023-07-03T23:18:59.495Z,100.00
2023-07-03T23:21:29.623Z,100.00
2023-07-03T23:23:59.524Z,100.00
2023-07-03T23:26:29.478Z,100.00
2023-07-03T23:29:02.032Z,100.00
2023-07-03T23:31:32.049Z,100.00
2023-07-03T23:34:02.390Z,100.00
2023-07-03T23:36:34.013Z,100.00
2023-07-03T23:39:02.897Z,100.00
2023-07-03T23:41:33.266Z,100.00
2023-07-03T23:44:03.264Z,100.00
2023-07-03T23:46:33.277Z,100.00
2023-07-03T23:49:03.379Z,100.00
2023-07-03T23:51:33.294Z,100.00
2023-07-03T23:54:03.608Z,100.00
2023-07-03T23:56:33.242Z,100.00
2023-07-03T23:59:04.382Z,100.00
